sensor_id;sensor_type;location;lat;lon;timestamp;P1;durP1;ratioP1;P2;durP2;ratioP2
65665;SDS011;52365;47.464;18.976;2023-07-29T00:00:13;2.83;;;1.70;;
65665;SDS011;52365;47.464;18.976;2023-07-29T00:00:34;2.50;;;1.80;;
65665;SDS011;52365;47.464;18.976;2023-07-29T00:00:55;3.60;;;1.90;;
65665;SDS011;52365;47.464;18.976;2023-07-29T00:01:16;3.72;;;1.98;;
65665;SDS011;52365;47.464;18.976;2023-07-29T00:01:33;2.78;;;1.90;;
65665;SDS011;52365;47.464;18.976;2023-07-29T00:01:55;2.75;;;1.85;;
65665;SDS011;52365;47.464;18.976;2023-07-29T00:02:16;3.30;;;1.80;;
65665;SDS011;52365;47.464;18.976;2023-07-29T00:02:37;3.30;;;1.90;;
65665;SDS011;52365;47.464;18.976;2023-07-29T00:02:58;3.03;;;1.92;;
65665;SDS011;52365;47.464;18.976;2023-07-29T00:03:19;3.25;;;1.92;;
65665;SDS011;52365;47.464;18.976;2023-07-29T00:03:40;3.37;;;1.73;;
65665;SDS011;52365;47.464;18.976;2023-07-29T00:04:01;3.58;;;1.87;;
65665;SDS011;52365;47.464;18.976;2023-07-29T00:04:23;3.80;;;2.10;;
65665;SDS011;52365;47.464;18.976;2023-07-29T00:04:44;3.80;;;1.95;;
65665;SDS011;52365;47.464;18.976;2023-07-29T00:05:05;3.20;;;1.90;;
65665;SDS011;52365;47.464;18.976;2023-07-29T00:05:26;3.58;;;1.90;;
65665;SDS011;52365;47.464;18.976;2023-07-29T00:05:47;3.00;;;1.90;;
65665;SDS011;52365;47.464;18.976;2023-07-29T00:06:09;2.83;;;1.83;;
65665;SDS011;52365;47.464;18.976;2023-07-29T00:06:30;2.87;;;1.75;;
65665;SDS011;52365;47.464;18.976;2023-07-29T00:06:51;4.20;;;1.73;;
65665;SDS011;52365;47.464;18.976;2023-07-29T00:07:12;3.25;;;1.80;;
65665;SDS011;52365;47.464;18.976;2023-07-29T00:07:33;3.75;;;1.65;;
65665;SDS011;52365;47.464;18.976;2023-07-29T00:07:49;4.12;;;1.70;;
65665;SDS011;52365;47.464;18.976;2023-07-29T00:08:10;4.40;;;1.90;;
65665;SDS011;52365;47.464;18.976;2023-07-29T00:08:31;2.83;;;1.87;;
65665;SDS011;52365;47.464;18.976;2023-07-29T00:08:52;3.80;;;1.90;;
65665;SDS011;52365;47.464;18.976;2023-07-29T00:09:13;3.15;;;1.70;;
65665;SDS011;52365;47.464;18.976;2023-07-29T00:09:34;3.45;;;1.92;;
65665;SDS011;52365;47.464;18.976;2023-07-29T00:09:55;3.22;;;1.85;;
65665;SDS011;52365;47.464;18.976;2023-07-29T00:10:16;3.72;;;1.92;;
65665;SDS011;52365;47.464;18.976;2023-07-29T00:10:37;2.90;;;1.62;;
65665;SDS011;52365;47.464;18.976;2023-07-29T00:10:59;2.47;;;1.62;;
65665;SDS011;52365;47.464;18.976;2023-07-29T00:11:20;2.45;;;1.55;;
65665;SDS011;52365;47.464;18.976;2023-07-29T00:11:41;2.65;;;1.75;;
65665;SDS011;52365;47.464;18.976;2023-07-29T00:12:02;3.20;;;1.80;;
65665;SDS011;52365;47.464;18.976;2023-07-29T00:12:23;3.60;;;1.90;;
65665;SDS011;52365;47.464;18.976;2023-07-29T00:12:44;3.12;;;1.80;;
65665;SDS011;52365;47.464;18.976;2023-07-29T00:13:00;3.28;;;1.92;;
65665;SDS011;52365;47.464;18.976;2023-07-29T00:13:21;2.90;;;1.90;;
65665;SDS011;52365;47.464;18.976;2023-07-29T00:13:42;3.08;;;1.90;;
65665;SDS011;52365;47.464;18.976;2023-07-29T00:14:03;2.90;;;1.85;;
65665;SDS011;52365;47.464;18.976;2023-07-29T00:14:24;3.28;;;1.70;;
65665;SDS011;52365;47.464;18.976;2023-07-29T00:14:45;3.17;;;1.60;;
65665;SDS011;52365;47.464;18.976;2023-07-29T00:15:07;2.92;;;1.70;;
65665;SDS011;52365;47.464;18.976;2023-07-29T00:15:28;2.80;;;1.80;;
65665;SDS011;52365;47.464;18.976;2023-07-29T00:15:49;2.55;;;1.70;;
65665;SDS011;52365;47.464;18.976;2023-07-29T00:16:10;3.20;;;1.83;;
65665;SDS011;52365;47.464;18.976;2023-07-29T00:16:31;4.25;;;1.95;;
65665;SDS011;52365;47.464;18.976;2023-07-29T00:16:52;3.05;;;1.90;;
65665;SDS011;52365;47.464;18.976;2023-07-29T00:17:13;2.60;;;1.60;;
65665;SDS011;52365;47.464;18.976;2023-07-29T00:17:34;2.50;;;1.65;;
65665;SDS011;52365;47.464;18.976;2023-07-29T00:17:55;2.53;;;1.60;;
65665;SDS011;52365;47.464;18.976;2023-07-29T00:18:16;2.60;;;1.60;;
65665;SDS011;52365;47.464;18.976;2023-07-29T00:18:37;2.95;;;1.67;;
65665;SDS011;52365;47.464;18.976;2023-07-29T00:18:59;2.85;;;1.80;;
65665;SDS011;52365;47.464;18.976;2023-07-29T00:19:20;3.10;;;1.80;;
65665;SDS011;52365;47.464;18.976;2023-07-29T00:19:44;2.62;;;1.67;;
65665;SDS011;52365;47.464;18.976;2023-07-29T00:20:06;2.90;;;1.70;;
65665;SDS011;52365;47.464;18.976;2023-07-29T00:20:28;4.22;;;1.60;;
65665;SDS011;52365;47.464;18.976;2023-07-29T00:20:49;4.28;;;1.65;;
65665;SDS011;52365;47.464;18.976;2023-07-29T00:21:05;2.55;;;1.67;;
65665;SDS011;52365;47.464;18.976;2023-07-29T00:21:26;2.72;;;1.60;;
65665;SDS011;52365;47.464;18.976;2023-07-29T00:21:42;2.97;;;1.80;;
65665;SDS011;52365;47.464;18.976;2023-07-29T00:22:04;2.50;;;1.62;;
65665;SDS011;52365;47.464;18.976;2023-07-29T00:22:25;2.70;;;1.60;;
65665;SDS011;52365;47.464;18.976;2023-07-29T00:22:46;3.03;;;1.67;;
65665;SDS011;52365;47.464;18.976;2023-07-29T00:23:07;3.45;;;1.80;;
65665;SDS011;52365;47.464;18.976;2023-07-29T00:23:28;3.12;;;1.80;;
65665;SDS011;52365;47.464;18.976;2023-07-29T00:23:49;2.20;;;1.42;;
65665;SDS011;52365;47.464;18.976;2023-07-29T00:24:10;2.87;;;1.65;;
65665;SDS011;52365;47.464;18.976;2023-07-29T00:24:31;2.87;;;1.60;;
65665;SDS011;52365;47.464;18.976;2023-07-29T00:24:52;3.17;;;1.60;;
65665;SDS011;52365;47.464;18.976;2023-07-29T00:25:15;3.35;;;1.87;;
65665;SDS011;52365;47.464;18.976;2023-07-29T00:25:37;3.05;;;1.98;;
65665;SDS011;52365;47.464;18.976;2023-07-29T00:25:58;2.17;;;1.63;;
65665;SDS011;52365;47.464;18.976;2023-07-29T00:26:19;2.67;;;1.60;;
65665;SDS011;52365;47.464;18.976;2023-07-29T00:26:35;3.22;;;1.70;;
65665;SDS011;52365;47.464;18.976;2023-07-29T00:26:56;2.40;;;1.62;;
65665;SDS011;52365;47.464;18.976;2023-07-29T00:27:17;2.65;;;1.60;;
65665;SDS011;52365;47.464;18.976;2023-07-29T00:27:38;3.28;;;1.62;;
65665;SDS011;52365;47.464;18.976;2023-07-29T00:27:59;2.28;;;1.70;;
65665;SDS011;52365;47.464;18.976;2023-07-29T00:28:20;2.65;;;1.73;;
65665;SDS011;52365;47.464;18.976;2023-07-29T00:28:41;2.58;;;1.70;;
65665;SDS011;52365;47.464;18.976;2023-07-29T00:29:02;2.80;;;1.70;;
65665;SDS011;52365;47.464;18.976;2023-07-29T00:29:18;2.65;;;1.50;;
65665;SDS011;52365;47.464;18.976;2023-07-29T00:29:39;2.60;;;1.50;;
65665;SDS011;52365;47.464;18.976;2023-07-29T00:30:00;2.78;;;1.70;;
65665;SDS011;52365;47.464;18.976;2023-07-29T00:30:21;2.62;;;1.70;;
65665;SDS011;52365;47.464;18.976;2023-07-29T00:30:42;3.45;;;1.77;;
65665;SDS011;52365;47.464;18.976;2023-07-29T00:31:03;3.55;;;1.65;;
65665;SDS011;52365;47.464;18.976;2023-07-29T00:31:19;2.75;;;1.60;;
65665;SDS011;52365;47.464;18.976;2023-07-29T00:31:40;2.33;;;1.60;;
65665;SDS011;52365;47.464;18.976;2023-07-29T00:32:01;3.12;;;1.80;;
65665;SDS011;52365;47.464;18.976;2023-07-29T00:32:23;2.45;;;1.65;;
65665;SDS011;52365;47.464;18.976;2023-07-29T00:32:44;2.35;;;1.75;;
65665;SDS011;52365;47.464;18.976;2023-07-29T00:33:05;3.05;;;1.90;;
65665;SDS011;52365;47.464;18.976;2023-07-29T00:33:26;3.25;;;1.70;;
65665;SDS011;52365;47.464;18.976;2023-07-29T00:33:47;2.75;;;1.70;;
65665;SDS011;52365;47.464;18.976;2023-07-29T00:34:08;2.87;;;1.55;;
65665;SDS011;52365;47.464;18.976;2023-07-29T00:34:29;2.97;;;1.77;;
65665;SDS011;52365;47.464;18.976;2023-07-29T00:34:51;2.70;;;1.77;;
65665;SDS011;52365;47.464;18.976;2023-07-29T00:35:12;3.60;;;1.58;;
65665;SDS011;52365;47.464;18.976;2023-07-29T00:35:34;3.03;;;1.65;;
65665;SDS011;52365;47.464;18.976;2023-07-29T00:35:55;9.30;;;6.95;;
65665;SDS011;52365;47.464;18.976;2023-07-29T00:36:16;19.35;;;12.98;;
65665;SDS011;52365;47.464;18.976;2023-07-29T00:36:37;13.55;;;9.35;;
65665;SDS011;52365;47.464;18.976;2023-07-29T00:36:58;35.35;;;25.40;;
65665;SDS011;52365;47.464;18.976;2023-07-29T00:37:19;28.10;;;20.33;;
65665;SDS011;52365;47.464;18.976;2023-07-29T00:37:40;38.80;;;27.92;;
65665;SDS011;52365;47.464;18.976;2023-07-29T00:38:01;46.37;;;32.90;;
65665;SDS011;52365;47.464;18.976;2023-07-29T00:38:22;33.60;;;24.63;;
65665;SDS011;52365;47.464;18.976;2023-07-29T00:38:43;21.65;;;14.82;;
65665;SDS011;52365;47.464;18.976;2023-07-29T00:39:04;13.70;;;9.27;;
65665;SDS011;52365;47.464;18.976;2023-07-29T00:39:25;8.63;;;6.12;;
65665;SDS011;52365;47.464;18.976;2023-07-29T00:39:46;6.32;;;4.18;;
65665;SDS011;52365;47.464;18.976;2023-07-29T00:40:12;6.12;;;3.67;;
65665;SDS011;52365;47.464;18.976;2023-07-29T00:40:37;5.37;;;3.33;;
65665;SDS011;52365;47.464;18.976;2023-07-29T00:40:58;4.15;;;2.83;;
65665;SDS011;52365;47.464;18.976;2023-07-29T00:41:21;4.10;;;2.37;;
65665;SDS011;52365;47.464;18.976;2023-07-29T00:41:43;3.53;;;2.10;;
65665;SDS011;52365;47.464;18.976;2023-07-29T00:42:04;4.07;;;2.00;;
65665;SDS011;52365;47.464;18.976;2023-07-29T00:42:25;3.33;;;2.17;;
65665;SDS011;52365;47.464;18.976;2023-07-29T00:42:46;3.62;;;2.10;;
65665;SDS011;52365;47.464;18.976;2023-07-29T00:43:07;3.60;;;1.90;;
65665;SDS011;52365;47.464;18.976;2023-07-29T00:43:29;3.60;;;2.00;;
65665;SDS011;52365;47.464;18.976;2023-07-29T00:43:50;3.60;;;2.00;;
65665;SDS011;52365;47.464;18.976;2023-07-29T00:44:11;3.05;;;2.03;;
65665;SDS011;52365;47.464;18.976;2023-07-29T00:44:32;3.60;;;2.08;;
65665;SDS011;52365;47.464;18.976;2023-07-29T00:44:48;3.80;;;2.10;;
65665;SDS011;52365;47.464;18.976;2023-07-29T00:45:09;4.65;;;2.10;;
65665;SDS011;52365;47.464;18.976;2023-07-29T00:45:25;4.55;;;2.10;;
65665;SDS011;52365;47.464;18.976;2023-07-29T00:45:49;4.40;;;2.05;;
65665;SDS011;52365;47.464;18.976;2023-07-29T00:46:10;3.92;;;2.00;;
65665;SDS011;52365;47.464;18.976;2023-07-29T00:46:34;3.67;;;2.22;;
65665;SDS011;52365;47.464;18.976;2023-07-29T00:46:56;3.22;;;2.28;;
65665;SDS011;52365;47.464;18.976;2023-07-29T00:47:17;2.83;;;1.90;;
65665;SDS011;52365;47.464;18.976;2023-07-29T00:47:40;3.37;;;1.85;;
65665;SDS011;52365;47.464;18.976;2023-07-29T00:48:02;3.58;;;1.90;;
65665;SDS011;52365;47.464;18.976;2023-07-29T00:48:25;3.00;;;1.87;;
65665;SDS011;52365;47.464;18.976;2023-07-29T00:48:46;3.20;;;2.03;;
65665;SDS011;52365;47.464;18.976;2023-07-29T00:49:08;3.70;;;2.10;;
65665;SDS011;52365;47.464;18.976;2023-07-29T00:49:29;4.18;;;1.95;;
65665;SDS011;52365;47.464;18.976;2023-07-29T00:49:50;4.00;;;1.80;;
65665;SDS011;52365;47.464;18.976;2023-07-29T00:50:12;2.87;;;1.92;;
65665;SDS011;52365;47.464;18.976;2023-07-29T00:50:34;4.10;;;2.00;;
65665;SDS011;52365;47.464;18.976;2023-07-29T00:50:51;4.65;;;2.00;;
65665;SDS011;52365;47.464;18.976;2023-07-29T00:51:12;3.30;;;1.95;;
65665;SDS011;52365;47.464;18.976;2023-07-29T00:51:33;3.62;;;1.90;;
65665;SDS011;52365;47.464;18.976;2023-07-29T00:51:54;3.95;;;1.80;;
65665;SDS011;52365;47.464;18.976;2023-07-29T00:52:15;3.92;;;1.70;;
65665;SDS011;52365;47.464;18.976;2023-07-29T00:52:36;2.35;;;1.60;;
65665;SDS011;52365;47.464;18.976;2023-07-29T00:52:58;3.05;;;1.90;;
65665;SDS011;52365;47.464;18.976;2023-07-29T00:53:19;3.15;;;2.00;;
65665;SDS011;52365;47.464;18.976;2023-07-29T00:53:40;3.15;;;2.12;;
65665;SDS011;52365;47.464;18.976;2023-07-29T00:54:01;3.20;;;2.00;;
65665;SDS011;52365;47.464;18.976;2023-07-29T00:54:22;3.55;;;2.00;;
65665;SDS011;52365;47.464;18.976;2023-07-29T00:54:43;3.15;;;2.00;;
65665;SDS011;52365;47.464;18.976;2023-07-29T00:54:59;3.03;;;1.92;;
65665;SDS011;52365;47.464;18.976;2023-07-29T00:55:21;2.72;;;1.80;;
65665;SDS011;52365;47.464;18.976;2023-07-29T00:55:42;2.78;;;1.80;;
65665;SDS011;52365;47.464;18.976;2023-07-29T00:56:03;4.37;;;1.75;;
65665;SDS011;52365;47.464;18.976;2023-07-29T00:56:25;3.33;;;1.60;;
65665;SDS011;52365;47.464;18.976;2023-07-29T00:56:46;2.87;;;1.75;;
65665;SDS011;52365;47.464;18.976;2023-07-29T00:57:02;3.03;;;1.87;;
65665;SDS011;52365;47.464;18.976;2023-07-29T00:57:24;2.87;;;1.85;;
65665;SDS011;52365;47.464;18.976;2023-07-29T00:57:46;3.00;;;1.90;;
65665;SDS011;52365;47.464;18.976;2023-07-29T00:58:10;2.78;;;1.92;;
65665;SDS011;52365;47.464;18.976;2023-07-29T00:58:31;2.50;;;1.75;;
65665;SDS011;52365;47.464;18.976;2023-07-29T00:58:52;2.78;;;1.60;;
65665;SDS011;52365;47.464;18.976;2023-07-29T00:59:19;4.45;;;1.87;;
65665;SDS011;52365;47.464;18.976;2023-07-29T00:59:40;3.67;;;2.00;;
65665;SDS011;52365;47.464;18.976;2023-07-29T01:00:01;3.25;;;1.90;;
65665;SDS011;52365;47.464;18.976;2023-07-29T01:00:24;3.20;;;1.70;;
65665;SDS011;52365;47.464;18.976;2023-07-29T01:00:45;3.37;;;1.80;;
65665;SDS011;52365;47.464;18.976;2023-07-29T01:01:06;2.97;;;1.80;;
65665;SDS011;52365;47.464;18.976;2023-07-29T01:01:27;3.03;;;1.85;;
65665;SDS011;52365;47.464;18.976;2023-07-29T01:01:49;3.47;;;1.83;;
65665;SDS011;52365;47.464;18.976;2023-07-29T01:02:11;3.00;;;1.90;;
65665;SDS011;52365;47.464;18.976;2023-07-29T01:02:32;2.60;;;1.80;;
65665;SDS011;52365;47.464;18.976;2023-07-29T01:02:53;2.83;;;1.80;;
65665;SDS011;52365;47.464;18.976;2023-07-29T01:03:15;2.67;;;1.80;;
65665;SDS011;52365;47.464;18.976;2023-07-29T01:03:36;3.25;;;1.90;;
65665;SDS011;52365;47.464;18.976;2023-07-29T01:03:57;3.17;;;1.90;;
65665;SDS011;52365;47.464;18.976;2023-07-29T01:04:19;4.93;;;2.00;;
65665;SDS011;52365;47.464;18.976;2023-07-29T01:04:40;3.10;;;1.90;;
65665;SDS011;52365;47.464;18.976;2023-07-29T01:05:01;2.92;;;1.77;;
65665;SDS011;52365;47.464;18.976;2023-07-29T01:05:22;3.70;;;2.00;;
65665;SDS011;52365;47.464;18.976;2023-07-29T01:05:50;3.90;;;1.95;;
65665;SDS011;52365;47.464;18.976;2023-07-29T01:06:50;3.28;;;1.80;;
65665;SDS011;52365;47.464;18.976;2023-07-29T01:07:14;3.03;;;1.85;;
65665;SDS011;52365;47.464;18.976;2023-07-29T01:07:59;2.58;;;1.80;;
65665;SDS011;52365;47.464;18.976;2023-07-29T01:09:29;3.70;;;1.98;;
65665;SDS011;52365;47.464;18.976;2023-07-29T01:10:44;2.78;;;1.83;;
65665;SDS011;52365;47.464;18.976;2023-07-29T01:12:08;2.50;;;1.67;;
65665;SDS011;52365;47.464;18.976;2023-07-29T01:13:44;2.30;;;1.70;;
65665;SDS011;52365;47.464;18.976;2023-07-29T01:15:26;2.72;;;1.80;;
65665;SDS011;52365;47.464;18.976;2023-07-29T01:15:39;3.05;;;1.90;;
65665;SDS011;52365;47.464;18.976;2023-07-29T01:16:07;2.78;;;1.87;;
65665;SDS011;52365;47.464;18.976;2023-07-29T01:16:45;3.58;;;1.90;;
65665;SDS011;52365;47.464;18.976;2023-07-29T01:17:19;3.10;;;1.98;;
65665;SDS011;52365;47.464;18.976;2023-07-29T01:17:59;2.70;;;1.92;;
65665;SDS011;52365;47.464;18.976;2023-07-29T01:18:28;2.97;;;1.80;;
65665;SDS011;52365;47.464;18.976;2023-07-29T01:18:52;2.62;;;1.80;;
65665;SDS011;52365;47.464;18.976;2023-07-29T01:19:23;2.55;;;1.90;;
65665;SDS011;52365;47.464;18.976;2023-07-29T01:20:09;6.00;;;2.12;;
65665;SDS011;52365;47.464;18.976;2023-07-29T01:20:36;2.70;;;1.80;;
65665;SDS011;52365;47.464;18.976;2023-07-29T01:21:01;2.47;;;1.70;;
65665;SDS011;52365;47.464;18.976;2023-07-29T01:21:19;2.83;;;1.67;;
65665;SDS011;52365;47.464;18.976;2023-07-29T01:21:42;2.85;;;1.92;;
65665;SDS011;52365;47.464;18.976;2023-07-29T01:22:03;3.50;;;1.80;;
65665;SDS011;52365;47.464;18.976;2023-07-29T01:22:25;3.53;;;1.80;;
65665;SDS011;52365;47.464;18.976;2023-07-29T01:22:46;2.72;;;1.70;;
65665;SDS011;52365;47.464;18.976;2023-07-29T01:23:10;3.33;;;1.83;;
65665;SDS011;52365;47.464;18.976;2023-07-29T01:23:31;3.28;;;1.80;;
65665;SDS011;52365;47.464;18.976;2023-07-29T01:23:57;2.78;;;1.60;;
65665;SDS011;52365;47.464;18.976;2023-07-29T01:24:19;3.53;;;1.92;;
65665;SDS011;52365;47.464;18.976;2023-07-29T01:24:40;3.17;;;2.00;;
65665;SDS011;52365;47.464;18.976;2023-07-29T01:25:02;4.00;;;2.10;;
65665;SDS011;52365;47.464;18.976;2023-07-29T01:25:19;3.45;;;1.90;;
65665;SDS011;52365;47.464;18.976;2023-07-29T01:25:35;3.22;;;1.73;;
65665;SDS011;52365;47.464;18.976;2023-07-29T01:25:56;2.33;;;1.70;;
65665;SDS011;52365;47.464;18.976;2023-07-29T01:26:17;2.75;;;1.60;;
65665;SDS011;52365;47.464;18.976;2023-07-29T01:26:38;3.17;;;1.98;;
65665;SDS011;52365;47.464;18.976;2023-07-29T01:26:59;2.60;;;1.80;;
65665;SDS011;52365;47.464;18.976;2023-07-29T01:27:22;2.37;;;1.65;;
65665;SDS011;52365;47.464;18.976;2023-07-29T01:27:44;3.03;;;1.70;;
65665;SDS011;52365;47.464;18.976;2023-07-29T01:28:06;3.17;;;1.70;;
65665;SDS011;52365;47.464;18.976;2023-07-29T01:28:27;2.75;;;1.77;;
65665;SDS011;52365;47.464;18.976;2023-07-29T01:28:48;3.35;;;1.80;;
65665;SDS011;52365;47.464;18.976;2023-07-29T01:29:04;3.40;;;1.80;;
65665;SDS011;52365;47.464;18.976;2023-07-29T01:29:25;4.50;;;2.12;;
65665;SDS011;52365;47.464;18.976;2023-07-29T01:29:46;3.20;;;1.90;;
65665;SDS011;52365;47.464;18.976;2023-07-29T01:30:08;2.80;;;1.83;;
65665;SDS011;52365;47.464;18.976;2023-07-29T01:30:30;2.90;;;1.90;;
65665;SDS011;52365;47.464;18.976;2023-07-29T01:31:02;2.80;;;1.85;;
65665;SDS011;52365;47.464;18.976;2023-07-29T01:31:44;3.50;;;2.10;;
65665;SDS011;52365;47.464;18.976;2023-07-29T01:32:10;3.10;;;1.77;;
65665;SDS011;52365;47.464;18.976;2023-07-29T01:33:27;3.20;;;1.85;;
65665;SDS011;52365;47.464;18.976;2023-07-29T01:33:58;3.37;;;1.83;;
65665;SDS011;52365;47.464;18.976;2023-07-29T01:34:24;3.58;;;1.83;;
65665;SDS011;52365;47.464;18.976;2023-07-29T01:35:43;4.00;;;1.80;;
65665;SDS011;52365;47.464;18.976;2023-07-29T01:36:11;4.10;;;2.03;;
65665;SDS011;52365;47.464;18.976;2023-07-29T01:36:39;3.30;;;1.90;;
65665;SDS011;52365;47.464;18.976;2023-07-29T01:37:02;4.12;;;1.90;;
65665;SDS011;52365;47.464;18.976;2023-07-29T01:37:26;3.22;;;1.80;;
65665;SDS011;52365;47.464;18.976;2023-07-29T01:37:53;3.40;;;1.90;;
65665;SDS011;52365;47.464;18.976;2023-07-29T01:38:27;3.58;;;1.80;;
65665;SDS011;52365;47.464;18.976;2023-07-29T01:38:55;3.03;;;2.00;;
65665;SDS011;52365;47.464;18.976;2023-07-29T01:39:18;3.62;;;2.10;;
65665;SDS011;52365;47.464;18.976;2023-07-29T01:39:42;4.62;;;2.00;;
65665;SDS011;52365;47.464;18.976;2023-07-29T01:40:01;3.65;;;2.03;;
65665;SDS011;52365;47.464;18.976;2023-07-29T01:40:23;2.97;;;1.75;;
65665;SDS011;52365;47.464;18.976;2023-07-29T01:40:50;2.70;;;1.77;;
65665;SDS011;52365;47.464;18.976;2023-07-29T01:41:12;2.70;;;1.70;;
65665;SDS011;52365;47.464;18.976;2023-07-29T01:41:35;3.03;;;1.83;;
65665;SDS011;52365;47.464;18.976;2023-07-29T01:41:56;2.97;;;1.90;;
65665;SDS011;52365;47.464;18.976;2023-07-29T01:42:18;3.22;;;1.95;;
65665;SDS011;52365;47.464;18.976;2023-07-29T01:42:34;3.70;;;1.90;;
65665;SDS011;52365;47.464;18.976;2023-07-29T01:42:55;3.60;;;1.90;;
65665;SDS011;52365;47.464;18.976;2023-07-29T01:43:16;2.85;;;1.80;;
65665;SDS011;52365;47.464;18.976;2023-07-29T01:43:39;2.70;;;1.70;;
65665;SDS011;52365;47.464;18.976;2023-07-29T01:44:04;3.10;;;1.70;;
65665;SDS011;52365;47.464;18.976;2023-07-29T01:44:22;3.45;;;1.80;;
65665;SDS011;52365;47.464;18.976;2023-07-29T01:44:43;3.80;;;2.00;;
65665;SDS011;52365;47.464;18.976;2023-07-29T01:45:04;3.22;;;1.85;;
65665;SDS011;52365;47.464;18.976;2023-07-29T01:45:26;3.65;;;1.87;;
65665;SDS011;52365;47.464;18.976;2023-07-29T01:45:47;4.12;;;1.75;;
65665;SDS011;52365;47.464;18.976;2023-07-29T01:46:09;2.90;;;1.75;;
65665;SDS011;52365;47.464;18.976;2023-07-29T01:46:33;2.75;;;1.90;;
65665;SDS011;52365;47.464;18.976;2023-07-29T01:46:59;2.60;;;1.80;;
65665;SDS011;52365;47.464;18.976;2023-07-29T01:47:20;2.87;;;1.83;;
65665;SDS011;52365;47.464;18.976;2023-07-29T01:47:43;3.53;;;1.90;;
65665;SDS011;52365;47.464;18.976;2023-07-29T01:48:04;2.95;;;1.70;;
65665;SDS011;52365;47.464;18.976;2023-07-29T01:48:26;3.42;;;1.90;;
65665;SDS011;52365;47.464;18.976;2023-07-29T01:48:48;3.55;;;2.00;;
65665;SDS011;52365;47.464;18.976;2023-07-29T01:49:09;3.75;;;1.90;;
65665;SDS011;52365;47.464;18.976;2023-07-29T01:49:30;2.90;;;1.92;;
65665;SDS011;52365;47.464;18.976;2023-07-29T01:49:51;3.90;;;1.95;;
65665;SDS011;52365;47.464;18.976;2023-07-29T01:50:12;4.00;;;2.00;;
65665;SDS011;52365;47.464;18.976;2023-07-29T01:50:28;3.30;;;1.67;;
65665;SDS011;52365;47.464;18.976;2023-07-29T01:50:49;3.85;;;1.80;;
65665;SDS011;52365;47.464;18.976;2023-07-29T01:51:11;3.62;;;1.90;;
65665;SDS011;52365;47.464;18.976;2023-07-29T01:51:33;2.53;;;1.70;;
65665;SDS011;52365;47.464;18.976;2023-07-29T01:51:54;2.85;;;1.80;;
65665;SDS011;52365;47.464;18.976;2023-07-29T01:52:15;3.22;;;1.77;;
65665;SDS011;52365;47.464;18.976;2023-07-29T01:52:36;2.62;;;1.83;;
65665;SDS011;52365;47.464;18.976;2023-07-29T01:52:58;2.62;;;1.83;;
65665;SDS011;52365;47.464;18.976;2023-07-29T01:53:19;2.80;;;1.98;;
65665;SDS011;52365;47.464;18.976;2023-07-29T01:53:40;2.83;;;1.70;;
65665;SDS011;52365;47.464;18.976;2023-07-29T01:54:01;2.55;;;1.70;;
65665;SDS011;52365;47.464;18.976;2023-07-29T01:54:22;3.08;;;1.85;;
65665;SDS011;52365;47.464;18.976;2023-07-29T01:54:43;2.40;;;1.70;;
65665;SDS011;52365;47.464;18.976;2023-07-29T01:55:04;2.65;;;1.70;;
65665;SDS011;52365;47.464;18.976;2023-07-29T01:55:26;2.60;;;1.80;;
65665;SDS011;52365;47.464;18.976;2023-07-29T01:55:47;3.10;;;1.75;;
65665;SDS011;52365;47.464;18.976;2023-07-29T01:56:03;2.60;;;1.65;;
65665;SDS011;52365;47.464;18.976;2023-07-29T01:56:24;3.90;;;1.92;;
65665;SDS011;52365;47.464;18.976;2023-07-29T01:56:45;3.08;;;1.70;;
65665;SDS011;52365;47.464;18.976;2023-07-29T01:57:06;3.12;;;1.90;;
65665;SDS011;52365;47.464;18.976;2023-07-29T01:57:27;3.12;;;1.87;;
65665;SDS011;52365;47.464;18.976;2023-07-29T01:57:48;3.45;;;1.90;;
65665;SDS011;52365;47.464;18.976;2023-07-29T01:58:09;3.50;;;1.83;;
65665;SDS011;52365;47.464;18.976;2023-07-29T01:58:30;3.70;;;1.80;;
65665;SDS011;52365;47.464;18.976;2023-07-29T01:58:51;2.78;;;1.80;;
65665;SDS011;52365;47.464;18.976;2023-07-29T01:59:12;2.70;;;1.70;;
65665;SDS011;52365;47.464;18.976;2023-07-29T01:59:34;3.25;;;1.90;;
65665;SDS011;52365;47.464;18.976;2023-07-29T01:59:55;3.30;;;1.80;;
65665;SDS011;52365;47.464;18.976;2023-07-29T02:00:16;2.72;;;1.70;;
65665;SDS011;52365;47.464;18.976;2023-07-29T02:00:37;3.87;;;1.90;;
65665;SDS011;52365;47.464;18.976;2023-07-29T02:00:58;2.87;;;1.83;;
65665;SDS011;52365;47.464;18.976;2023-07-29T02:01:19;2.72;;;1.70;;
65665;SDS011;52365;47.464;18.976;2023-07-29T02:01:35;3.37;;;1.90;;
65665;SDS011;52365;47.464;18.976;2023-07-29T02:01:51;3.92;;;2.03;;
65665;SDS011;52365;47.464;18.976;2023-07-29T02:02:12;3.37;;;1.85;;
65665;SDS011;52365;47.464;18.976;2023-07-29T02:02:33;4.07;;;1.90;;
65665;SDS011;52365;47.464;18.976;2023-07-29T02:02:54;2.58;;;1.80;;
65665;SDS011;52365;47.464;18.976;2023-07-29T02:03:10;2.42;;;1.80;;
65665;SDS011;52365;47.464;18.976;2023-07-29T02:03:26;2.55;;;1.80;;
65665;SDS011;52365;47.464;18.976;2023-07-29T02:03:47;2.90;;;1.95;;
65665;SDS011;52365;47.464;18.976;2023-07-29T02:04:15;3.50;;;1.80;;
65665;SDS011;52365;47.464;18.976;2023-07-29T02:04:36;2.35;;;1.65;;
65665;SDS011;52365;47.464;18.976;2023-07-29T02:04:57;2.28;;;1.65;;
65665;SDS011;52365;47.464;18.976;2023-07-29T02:05:18;2.85;;;1.70;;
65665;SDS011;52365;47.464;18.976;2023-07-29T02:05:39;4.22;;;2.00;;
65665;SDS011;52365;47.464;18.976;2023-07-29T02:06:00;4.57;;;1.95;;
65665;SDS011;52365;47.464;18.976;2023-07-29T02:06:21;3.62;;;1.75;;
65665;SDS011;52365;47.464;18.976;2023-07-29T02:06:43;3.28;;;1.92;;
65665;SDS011;52365;47.464;18.976;2023-07-29T02:06:59;4.53;;;2.10;;
65665;SDS011;52365;47.464;18.976;2023-07-29T02:07:20;3.78;;;1.90;;
65665;SDS011;52365;47.464;18.976;2023-07-29T02:07:41;3.78;;;2.10;;
65665;SDS011;52365;47.464;18.976;2023-07-29T02:08:02;3.33;;;2.10;;
65665;SDS011;52365;47.464;18.976;2023-07-29T02:08:18;3.78;;;2.00;;
65665;SDS011;52365;47.464;18.976;2023-07-29T02:08:39;4.62;;;1.87;;
65665;SDS011;52365;47.464;18.976;2023-07-29T02:08:56;4.20;;;1.90;;
65665;SDS011;52365;47.464;18.976;2023-07-29T02:09:17;3.42;;;2.03;;
65665;SDS011;52365;47.464;18.976;2023-07-29T02:09:38;3.15;;;1.98;;
65665;SDS011;52365;47.464;18.976;2023-07-29T02:09:59;3.17;;;1.85;;
65665;SDS011;52365;47.464;18.976;2023-07-29T02:10:15;2.53;;;1.80;;
65665;SDS011;52365;47.464;18.976;2023-07-29T02:10:36;2.72;;;1.90;;
65665;SDS011;52365;47.464;18.976;2023-07-29T02:10:57;3.20;;;1.98;;
65665;SDS011;52365;47.464;18.976;2023-07-29T02:11:18;3.47;;;1.87;;
65665;SDS011;52365;47.464;18.976;2023-07-29T02:11:41;3.20;;;1.80;;
65665;SDS011;52365;47.464;18.976;2023-07-29T02:12:02;2.80;;;1.80;;
65665;SDS011;52365;47.464;18.976;2023-07-29T02:12:23;2.55;;;1.67;;
65665;SDS011;52365;47.464;18.976;2023-07-29T02:12:44;2.97;;;1.70;;
65665;SDS011;52365;47.464;18.976;2023-07-29T02:13:05;3.30;;;1.90;;
65665;SDS011;52365;47.464;18.976;2023-07-29T02:13:26;2.92;;;1.80;;
65665;SDS011;52365;47.464;18.976;2023-07-29T02:13:47;4.00;;;1.85;;
65665;SDS011;52365;47.464;18.976;2023-07-29T02:14:08;2.80;;;1.70;;
65665;SDS011;52365;47.464;18.976;2023-07-29T02:14:29;2.78;;;1.80;;
65665;SDS011;52365;47.464;18.976;2023-07-29T02:14:50;3.37;;;1.90;;
65665;SDS011;52365;47.464;18.976;2023-07-29T02:15:11;3.78;;;1.80;;
65665;SDS011;52365;47.464;18.976;2023-07-29T02:15:32;2.85;;;1.80;;
65665;SDS011;52365;47.464;18.976;2023-07-29T02:15:48;2.85;;;1.77;;
65665;SDS011;52365;47.464;18.976;2023-07-29T02:16:09;3.50;;;1.92;;
65665;SDS011;52365;47.464;18.976;2023-07-29T02:16:25;4.03;;;2.00;;